createdAt,value
2018-12-11T00:02:10.203Z,95170.02
2018-12-11T00:04:38.249Z,95173.42
2018-12-11T00:07:06.370Z,95186.09
2018-12-11T00:09:34.432Z,95184.66
2018-12-11T00:12:02.552Z,95178.36
2018-12-11T00:14:30.684Z,95183.16
2018-12-11T00:16:58.734Z,95185.08
2018-12-11T00:19:26.781Z,95171.16
2018-12-11T00:21:54.842Z,95175.14
2018-12-11T00:24:22.885Z,95177.23
2018-12-11T00:26:51.032Z,95163.41
2018-12-11T00:29:19.255Z,95158.14
2018-12-11T00:31:47.369Z,95173.84
2018-12-11T00:34:15.433Z,95174.52
2018-12-11T00:36:43.487Z,95175.94
2018-12-11T00:39:11.611Z,95177.41
2018-12-11T00:41:39.641Z,95163.19
2018-12-11T00:44:07.723Z,95172.77
2018-12-11T00:46:35.824Z,95169.64
2018-12-11T00:49:03.943Z,95167.19
2018-12-11T00:51:32.238Z,95157.80
2018-12-11T00:54:00.275Z,95173.02
2018-12-11T00:56:28.307Z,95156.07
2018-12-11T00:58:56.370Z,95163.59
2018-12-11T01:01:24.481Z,95172.52
2018-12-11T01:03:52.902Z,95164.41
2018-12-11T01:06:22.978Z,95158.02
2018-12-11T01:08:51.134Z,95161.41
2018-12-11T01:11:19.177Z,95156.39
2018-12-11T01:13:47.232Z,95166.18
2018-12-11T01:16:15.435Z,95152.55
2018-12-11T01:18:43.538Z,95174.38
2018-12-11T01:21:11.735Z,95167.75
2018-12-11T01:23:39.786Z,95170.01
2018-12-11T01:26:07.906Z,95167.59
2018-12-11T01:28:36.136Z,95179.62
2018-12-11T01:31:04.301Z,95186.20
2018-12-11T01:33:32.352Z,95183.86
2018-12-11T01:36:00.408Z,95184.16
2018-12-11T01:38:28.443Z,95192.81
2018-12-11T01:40:56.486Z,95181.28
2018-12-11T01:43:24.525Z,95171.87
2018-12-11T01:48:34.030Z,95189.93
2018-12-11T01:51:02.179Z,95190.45
2018-12-11T01:53:30.260Z,95188.86
2018-12-11T01:55:58.398Z,95208.42
2018-12-11T01:58:26.458Z,95198.46
2018-12-11T02:00:54.535Z,95206.00
2018-12-11T02:03:22.643Z,95201.48
2018-12-11T02:05:50.758Z,95196.61
2018-12-11T02:08:18.888Z,95199.16
2018-12-11T02:10:47.105Z,95196.31
2018-12-11T02:13:15.263Z,95196.28
2018-12-11T02:15:43.810Z,95196.11
2018-12-11T02:18:11.858Z,95199.23
2018-12-11T02:20:39.969Z,95205.52
2018-12-11T02:23:08.121Z,95187.44
2018-12-11T02:25:36.246Z,95192.81
2018-12-11T02:28:04.430Z,95190.94
2018-12-11T02:30:32.537Z,95194.25
2018-12-11T02:33:00.714Z,95185.36
2018-12-11T02:35:28.805Z,95194.20
2018-12-11T02:37:56.884Z,95196.33
2018-12-11T02:40:25.001Z,95206.28
2018-12-11T02:42:53.064Z,95203.58
2018-12-11T02:45:21.106Z,95203.11
2018-12-11T02:47:49.170Z,95204.86
2018-12-11T02:50:17.298Z,95205.13
2018-12-11T02:52:45.342Z,95206.06
2018-12-11T02:55:13.492Z,95212.73
2018-12-11T02:57:41.531Z,95201.50
2018-12-11T03:00:09.974Z,95211.66
2018-12-11T03:02:38.009Z,95207.77
2018-12-11T03:05:06.354Z,95202.42
2018-12-11T03:07:34.402Z,95201.20
2018-12-11T03:10:02.439Z,95212.93
2018-12-11T03:12:30.505Z,95203.01
2018-12-11T03:14:58.623Z,95196.80
2018-12-11T03:17:26.800Z,95200.06
2018-12-11T03:19:54.853Z,95205.41
2018-12-11T03:22:23.207Z,95205.11
2018-12-11T03:24:51.260Z,95212.10
2018-12-11T03:27:19.319Z,95195.53
2018-12-11T03:29:47.447Z,95193.48
2018-12-11T03:32:15.479Z,95188.83
2018-12-11T03:34:43.677Z,95189.08
2018-12-11T03:37:11.777Z,95186.47
2018-12-11T03:39:39.842Z,95197.41
2018-12-11T03:42:07.957Z,95195.39
2018-12-11T03:44:36.226Z,95190.93
2018-12-11T03:47:04.479Z,95191.80
2018-12-11T03:49:32.553Z,95179.75
2018-12-11T03:52:00.601Z,95186.80
2018-12-11T03:54:28.665Z,95198.05
2018-12-11T03:56:56.842Z,95194.87
2018-12-11T03:59:24.900Z,95192.14
2018-12-11T04:01:53.294Z,95184.34
2018-12-11T04:04:21.334Z,95189.86
2018-12-11T04:06:49.374Z,95188.59
2018-12-11T04:09:17.487Z,95184.27
2018-12-11T04:11:46.698Z,95192.81
2018-12-11T04:14:14.814Z,95183.58
2018-12-11T04:16:42.978Z,95175.87
2018-12-11T04:19:11.151Z,95187.78
2018-12-11T04:21:39.288Z,95189.80
2018-12-11T04:24:07.555Z,95180.70
2018-12-11T04:26:35.663Z,95170.95
2018-12-11T04:29:03.841Z,95180.79
2018-12-11T04:31:31.882Z,95187.29
2018-12-11T04:33:59.937Z,95177.51
2018-12-11T04:36:27.971Z,95168.06
2018-12-11T04:38:56.089Z,95178.66
2018-12-11T04:41:24.144Z,95182.85
2018-12-11T04:43:52.207Z,95191.34
2018-12-11T04:46:20.244Z,95186.06
2018-12-11T04:48:48.306Z,95191.09
2018-12-11T04:51:16.331Z,95183.27
2018-12-11T04:53:44.385Z,95175.30
2018-12-11T04:56:12.514Z,95168.98
2018-12-11T04:58:40.566Z,95170.26
2018-12-11T05:01:08.642Z,95163.59
2018-12-11T05:03:36.731Z,95161.69
2018-12-11T05:06:04.910Z,95165.35
2018-12-11T05:08:32.970Z,95182.73
2018-12-11T05:11:01.073Z,95178.13
2018-12-11T05:13:29.125Z,95172.23
2018-12-11T05:15:57.199Z,95172.64
2018-12-11T05:18:25.348Z,95170.67
2018-12-11T05:20:53.399Z,95169.08
2018-12-11T05:23:21.521Z,95172.92
2018-12-11T05:25:49.590Z,95182.83
2018-12-11T05:28:17.723Z,95179.34
2018-12-11T05:30:45.798Z,95175.12
2018-12-11T05:33:13.862Z,95173.05
2018-12-11T05:35:42.046Z,95177.27
2018-12-11T05:38:10.082Z,95175.87
2018-12-11T05:40:38.188Z,95169.34
2018-12-11T05:43:06.241Z,95159.55
2018-12-11T05:45:34.310Z,95175.53
2018-12-11T05:48:02.356Z,95179.04
2018-12-11T05:50:30.397Z,95183.17
2018-12-11T05:52:58.539Z,95180.05
2018-12-11T05:55:27.666Z,95188.48
2018-12-11T05:57:55.837Z,95189.76
2018-12-11T06:00:23.899Z,95187.67
2018-12-11T06:02:52.013Z,95187.05
2018-12-11T06:05:20.173Z,95189.90
2018-12-11T06:07:48.222Z,95184.03
2018-12-11T06:10:16.282Z,95180.11
2018-12-11T06:12:44.394Z,95193.58
2018-12-11T06:15:12.564Z,95185.55
2018-12-11T06:17:40.622Z,95187.22
2018-12-11T06:20:08.753Z,95188.34
2018-12-11T06:22:37.393Z,95186.83
2018-12-11T06:25:06.136Z,95178.64
2018-12-11T06:27:34.817Z,95170.61
2018-12-11T06:30:04.099Z,95175.22
2018-12-11T06:32:32.762Z,95171.80
2018-12-11T06:35:01.387Z,95170.59
2018-12-11T06:37:30.084Z,95173.27
2018-12-11T06:39:58.657Z,95177.36
2018-12-11T06:42:27.314Z,95168.63
2018-12-11T06:44:56.008Z,95169.86
2018-12-11T06:47:24.656Z,95176.25
2018-12-11T06:49:52.781Z,95177.26
2018-12-11T06:52:20.891Z,95188.96
2018-12-11T06:54:48.954Z,95185.08
2018-12-11T06:57:16.999Z,95176.68
2018-12-11T06:59:45.027Z,95188.23
2018-12-11T07:02:13.116Z,95198.13
2018-12-11T07:04:41.182Z,95190.01
2018-12-11T07:07:09.811Z,95196.27
2018-12-11T07:09:38.592Z,95200.32
2018-12-11T07:12:06.677Z,95204.13
2018-12-11T07:14:34.717Z,95199.72
2018-12-11T07:17:02.751Z,95205.28
2018-12-11T07:19:30.873Z,95206.80
2018-12-11T07:21:59.979Z,95209.69
2018-12-11T07:24:28.030Z,95217.64
2018-12-11T07:26:56.092Z,95212.55
2018-12-11T07:29:24.222Z,95213.76
2018-12-11T07:31:52.277Z,95211.72
2018-12-11T07:34:20.418Z,95208.89
2018-12-11T07:36:48.491Z,95218.27
2018-12-11T07:39:16.582Z,95212.70
2018-12-11T07:41:44.718Z,95220.78
2018-12-11T07:44:12.761Z,95225.92
2018-12-11T07:46:40.827Z,95216.80
2018-12-11T07:49:08.865Z,95222.20
2018-12-11T07:51:36.919Z,95221.42
2018-12-11T07:54:04.970Z,95218.27
2018-12-11T07:56:33.023Z,95227.91
2018-12-11T07:59:01.095Z,95233.25
2018-12-11T08:01:29.137Z,95235.10
2018-12-11T08:03:57.169Z,95235.53
2018-12-11T08:06:25.221Z,95238.05
2018-12-11T08:08:53.259Z,95247.78
2018-12-11T08:11:21.405Z,95245.15
2018-12-11T08:13:49.439Z,95243.36
2018-12-11T08:16:18.222Z,95239.16
2018-12-11T08:18:46.269Z,95248.16
2018-12-11T08:21:14.322Z,95246.62
2018-12-11T08:23:42.462Z,95245.70
2018-12-11T08:26:10.532Z,95258.32
2018-12-11T08:28:38.582Z,95251.87
2018-12-11T08:31:06.725Z,95254.32
2018-12-11T08:33:34.882Z,95248.50
2018-12-11T08:36:02.940Z,95253.17
2018-12-11T08:38:30.972Z,95254.08
2018-12-11T08:40:59.013Z,95256.80
2018-12-11T08:43:27.069Z,95250.61
2018-12-11T08:45:55.114Z,95257.00
2018-12-11T08:48:23.150Z,95249.09
2018-12-11T08:50:51.191Z,95257.52
2018-12-11T08:53:19.284Z,95256.52
2018-12-11T08:55:47.333Z,95251.56
2018-12-11T08:58:15.438Z,95248.66
2018-12-11T09:00:43.558Z,95249.36
2018-12-11T09:03:11.622Z,95247.72
2018-12-11T09:05:39.725Z,95256.02
2018-12-11T09:08:07.770Z,95265.98
2018-12-11T09:10:35.890Z,95258.80
2018-12-11T09:13:04.057Z,95258.67
2018-12-11T09:15:32.153Z,95261.23
2018-12-11T09:18:00.198Z,95268.48
2018-12-11T09:20:28.243Z,95268.44
2018-12-11T09:22:58.057Z,95268.88
2018-12-11T09:25:26.108Z,95272.14
2018-12-11T09:27:54.301Z,95280.44
2018-12-11T09:30:22.341Z,95280.26
2018-12-11T09:32:50.429Z,95284.91
2018-12-11T09:35:18.482Z,95283.03
2018-12-11T09:37:46.530Z,95286.34
2018-12-11T09:40:14.658Z,95284.91
2018-12-11T09:42:42.912Z,95284.97
2018-12-11T09:45:10.958Z,95285.63
2018-12-11T09:47:39.081Z,95288.59
2018-12-11T09:50:07.295Z,95290.17
2018-12-11T09:52:35.337Z,95288.34
2018-12-11T09:55:03.518Z,95300.14
2018-12-11T09:57:31.721Z,95296.52
2018-12-11T09:59:59.786Z,95301.22
2018-12-11T10:02:27.907Z,95296.21
2018-12-11T10:04:55.971Z,95295.53
2018-12-11T10:07:24.018Z,95287.78
2018-12-11T10:09:52.136Z,95289.97
2018-12-11T10:12:20.238Z,95292.22
2018-12-11T10:14:48.397Z,95291.53
2018-12-11T10:17:16.551Z,95291.58
2018-12-11T10:19:44.587Z,95297.63
2018-12-11T10:22:12.900Z,95289.65
2018-12-11T10:24:40.955Z,95288.08
2018-12-11T10:27:08.995Z,95293.51
2018-12-11T10:29:37.040Z,95294.83
2018-12-11T10:32:05.163Z,95291.63
2018-12-11T10:34:33.270Z,95283.09
2018-12-11T10:37:01.361Z,95290.84
2018-12-11T10:39:29.480Z,95288.63
2018-12-11T10:41:57.550Z,95286.42
2018-12-11T10:44:25.594Z,95288.76
2018-12-11T10:46:53.749Z,95288.99
2018-12-11T10:49:21.899Z,95277.94
2018-12-11T10:51:50.099Z,95287.08
2018-12-11T10:54:18.161Z,95278.91
2018-12-11T10:56:46.304Z,95280.11
2018-12-11T10:59:14.457Z,95280.88
2018-12-11T11:01:48.861Z,95275.14
2018-12-11T11:04:17.194Z,95286.34
2018-12-11T11:06:45.350Z,95275.97
2018-12-11T11:09:13.399Z,95276.23
2018-12-11T11:11:42.088Z,95277.23
2018-12-11T11:14:10.345Z,95280.04
2018-12-11T11:16:38.393Z,95286.56
2018-12-11T11:19:06.476Z,95283.50
2018-12-11T11:21:34.612Z,95275.81
2018-12-11T11:24:02.724Z,95284.40
2018-12-11T11:26:30.841Z,95286.45
2018-12-11T11:28:58.916Z,95284.53
2018-12-11T11:31:26.945Z,95283.87
2018-12-11T11:33:57.005Z,95285.23
2018-12-11T11:36:25.598Z,95273.65
2018-12-11T11:38:53.646Z,95275.02
2018-12-11T11:41:21.732Z,95269.93
2018-12-11T11:43:49.892Z,95271.09
2018-12-11T11:48:59.512Z,95271.63
2018-12-11T11:51:27.604Z,95277.77
2018-12-11T11:53:55.736Z,95264.95
2018-12-11T11:56:23.807Z,95270.61
2018-12-11T11:58:51.934Z,95268.60
2018-12-11T12:01:20.004Z,95268.70
2018-12-11T12:03:48.341Z,95256.36
2018-12-11T12:06:16.453Z,95263.72
2018-12-11T12:08:44.503Z,95267.44
2018-12-11T12:11:12.610Z,95273.20
2018-12-11T12:13:40.823Z,95278.90
2018-12-11T12:16:08.899Z,95275.91
2018-12-11T12:18:37.060Z,95280.73
2018-12-11T12:21:05.208Z,95289.73
2018-12-11T12:23:33.254Z,95283.81
2018-12-11T12:26:01.268Z,95280.25
2018-12-11T12:28:29.358Z,95290.94
2018-12-11T12:30:59.217Z,95280.19
2018-12-11T12:33:27.318Z,95301.64
2018-12-11T12:35:55.356Z,95291.06
2018-12-11T12:38:23.531Z,95288.52
2018-12-11T12:40:51.647Z,95283.19
2018-12-11T12:43:20.231Z,95280.83
2018-12-11T12:45:48.581Z,95280.00
2018-12-11T12:48:16.744Z,95280.73
2018-12-11T12:50:44.778Z,95280.00
2018-12-11T12:53:12.911Z,95282.74
2018-12-11T12:55:40.938Z,95278.94
2018-12-11T12:58:09.002Z,95280.42
2018-12-11T13:00:37.077Z,95284.45
2018-12-11T13:03:05.162Z,95282.30
2018-12-11T13:05:33.194Z,95285.59
2018-12-11T13:08:01.253Z,95287.38
2018-12-11T13:10:29.305Z,95291.41
2018-12-11T13:12:57.629Z,95291.59
2018-12-11T13:15:25.737Z,95290.77
2018-12-11T13:17:53.775Z,95279.45
2018-12-11T13:20:21.934Z,95281.38
2018-12-11T13:22:49.990Z,95278.44
2018-12-11T13:25:18.063Z,95285.01
2018-12-11T13:27:46.185Z,95282.77
2018-12-11T13:30:14.245Z,95283.55
2018-12-11T13:32:42.286Z,95281.74
2018-12-11T13:35:10.410Z,95280.63
2018-12-11T13:37:38.450Z,95283.49
2018-12-11T13:40:06.821Z,95281.84
2018-12-11T13:42:34.957Z,95284.09
2018-12-11T13:45:03.313Z,95289.88
2018-12-11T13:47:31.334Z,95291.25
2018-12-11T13:49:59.396Z,95283.13
2018-12-11T13:52:27.460Z,95283.59
2018-12-11T13:54:55.507Z,95286.98
2018-12-11T13:57:23.793Z,95279.02
2018-12-11T13:59:51.831Z,95288.05
2018-12-11T14:02:19.893Z,95277.95
2018-12-11T14:04:47.998Z,95287.16
2018-12-11T14:07:16.173Z,95290.66
2018-12-11T14:09:44.220Z,95299.30
2018-12-11T14:12:12.320Z,95301.39
2018-12-11T14:14:40.469Z,95297.67
2018-12-11T14:17:08.755Z,95296.03
2018-12-11T14:19:36.890Z,95304.89
2018-12-11T14:22:05.042Z,95298.50
2018-12-11T14:24:33.168Z,95295.69
2018-12-11T14:27:01.220Z,95309.27
2018-12-11T14:29:29.359Z,95303.57
2018-12-11T14:31:57.429Z,95308.33
2018-12-11T14:34:25.542Z,95300.67
2018-12-11T14:36:53.647Z,95305.59
2018-12-11T14:39:21.689Z,95303.86
2018-12-11T14:41:49.802Z,95308.35
2018-12-11T14:44:17.905Z,95299.02
2018-12-11T14:46:46.113Z,95301.67
2018-12-11T14:49:14.266Z,95311.30
2018-12-11T14:51:42.463Z,95306.04
2018-12-11T14:54:10.737Z,95299.58
2018-12-11T14:56:38.905Z,95300.62
2018-12-11T14:59:07.113Z,95303.70
2018-12-11T15:01:35.448Z,95306.91
2018-12-11T15:04:03.573Z,95312.64
2018-12-11T15:06:31.758Z,95311.63
2018-12-11T15:09:05.237Z,95305.76
2018-12-11T15:11:33.321Z,95310.46
2018-12-11T15:14:01.404Z,95316.80
2018-12-11T15:16:29.582Z,95316.84
2018-12-11T15:18:57.732Z,95313.03
2018-12-11T15:21:25.794Z,95312.86
2018-12-11T15:23:53.884Z,95314.72
2018-12-11T15:26:22.190Z,95311.70
2018-12-11T15:28:50.241Z,95309.45
2018-12-11T15:31:18.308Z,95315.19
2018-12-11T15:33:46.393Z,95318.93
2018-12-11T15:36:14.553Z,95315.92
2018-12-11T15:38:42.640Z,95318.77
2018-12-11T15:41:10.807Z,95318.58
2018-12-11T15:43:39.173Z,95322.73
2018-12-11T15:46:07.218Z,95319.11
2018-12-11T15:48:35.362Z,95322.63
2018-12-11T15:51:03.433Z,95322.59
2018-12-11T15:53:31.555Z,95325.20
2018-12-11T15:55:59.604Z,95321.06
2018-12-11T15:58:27.629Z,95321.15
2018-12-11T16:00:55.757Z,95324.28
2018-12-11T16:03:23.867Z,95330.77
2018-12-11T16:05:51.941Z,95327.73
2018-12-11T16:08:20.055Z,95318.59
2018-12-11T16:10:49.102Z,95326.38
2018-12-11T16:13:17.230Z,95318.20
2018-12-11T16:15:45.402Z,95325.14
2018-12-11T16:18:13.485Z,95325.91
2018-12-11T16:20:41.700Z,95321.91
2018-12-11T16:23:09.764Z,95325.20
2018-12-11T16:25:37.863Z,95321.30
2018-12-11T16:28:06.017Z,95324.92
2018-12-11T16:30:34.100Z,95327.80
2018-12-11T16:33:02.318Z,95320.77
2018-12-11T16:35:30.471Z,95317.84
2018-12-11T16:37:59.075Z,95321.43
2018-12-11T16:40:27.146Z,95327.59
2018-12-11T16:42:55.753Z,95329.92
2018-12-11T16:45:23.869Z,95327.00
2018-12-11T16:47:51.962Z,95327.00
2018-12-11T16:50:20.048Z,95329.79
2018-12-11T16:52:48.112Z,95331.75
2018-12-11T16:55:16.718Z,95334.34
2018-12-11T16:57:44.912Z,95336.88
2018-12-11T17:00:13.951Z,95336.22
2018-12-11T17:02:42.275Z,95334.73
2018-12-11T17:05:10.544Z,95336.14
2018-12-11T17:07:38.710Z,95338.39
2018-12-11T17:10:07.381Z,95343.47
2018-12-11T17:12:35.436Z,95342.61
2018-12-11T17:15:04.170Z,95338.17
2018-12-11T17:17:32.392Z,95340.95
2018-12-11T17:20:00.536Z,95349.25
2018-12-11T17:22:28.673Z,95350.59
2018-12-11T17:24:56.994Z,95356.14
2018-12-11T17:27:25.249Z,95352.34
2018-12-11T17:29:53.450Z,95355.48
2018-12-11T17:32:21.489Z,95361.88
2018-12-11T17:34:49.667Z,95363.68
2018-12-11T17:37:17.889Z,95362.62
2018-12-11T17:39:46.145Z,95371.38
2018-12-11T17:42:15.347Z,95367.26
2018-12-11T17:44:43.447Z,95363.88
2018-12-11T17:47:11.523Z,95368.69
2018-12-11T17:49:39.599Z,95360.55
2018-12-11T17:52:11.302Z,95357.75
2018-12-11T17:54:39.338Z,95355.81
2018-12-11T17:57:07.382Z,95348.88
2018-12-11T17:59:35.454Z,95351.39
2018-12-11T18:02:06.148Z,95358.33
2018-12-11T18:04:34.207Z,95356.41
2018-12-11T18:07:02.332Z,95355.04
2018-12-11T18:09:30.663Z,95352.73
2018-12-11T18:11:59.113Z,95354.30
2018-12-11T18:14:27.160Z,95358.06
2018-12-11T18:16:55.230Z,95357.86
2018-12-11T18:19:23.446Z,95359.02
2018-12-11T18:21:51.559Z,95358.98
2018-12-11T18:24:20.210Z,95367.89
2018-12-11T18:26:48.286Z,95364.95
2018-12-11T18:29:16.352Z,95375.13
2018-12-11T18:31:44.453Z,95372.59
2018-12-11T18:34:12.553Z,95375.02
2018-12-11T18:36:40.686Z,95377.38
2018-12-11T18:39:09.138Z,95380.86
2018-12-11T18:41:37.203Z,95383.46
2018-12-11T18:44:05.248Z,95377.71
2018-12-11T18:46:33.362Z,95377.39
2018-12-11T18:49:01.456Z,95376.52
2018-12-11T18:54:06.777Z,95382.56
2018-12-11T18:56:34.838Z,95389.91
2018-12-11T18:59:03.115Z,95382.21
2018-12-11T19:01:31.145Z,95387.33
2018-12-11T19:03:59.197Z,95390.73
2018-12-11T19:06:27.485Z,95392.63
2018-12-11T19:08:55.644Z,95401.20
2018-12-11T19:11:23.677Z,95404.55
2018-12-11T19:13:51.714Z,95408.18
2018-12-11T19:16:19.755Z,95406.66
2018-12-11T19:18:47.815Z,95398.36
2018-12-11T19:21:16.870Z,95406.09
2018-12-11T19:23:53.237Z,95409.27
2018-12-11T19:26:21.639Z,95404.91
2018-12-11T19:28:49.746Z,95399.12
2018-12-11T19:31:17.980Z,95396.68
2018-12-11T19:33:46.006Z,95392.51
2018-12-11T19:36:14.157Z,95388.91
2018-12-11T19:38:42.218Z,95397.59
2018-12-11T19:41:10.302Z,95391.84
2018-12-11T19:43:38.400Z,95397.71
2018-12-11T19:46:06.531Z,95395.95
2018-12-11T19:48:34.575Z,95399.66
2018-12-11T19:51:02.628Z,95392.05
2018-12-11T19:53:30.758Z,95401.22
2018-12-11T19:55:58.822Z,95398.81
2018-12-11T19:58:26.893Z,95401.69
2018-12-11T20:00:54.926Z,95392.72
2018-12-11T20:03:23.213Z,95401.97
2018-12-11T20:05:51.351Z,95406.31
2018-12-11T20:08:19.432Z,95411.39
2018-12-11T20:10:52.746Z,95408.07
2018-12-11T20:13:20.959Z,95416.38
2018-12-11T20:15:49.470Z,95414.71
2018-12-11T20:18:17.583Z,95417.96
2018-12-11T20:20:45.689Z,95413.14
2018-12-11T20:23:13.819Z,95418.21
2018-12-11T20:25:42.851Z,95417.12
2018-12-11T20:28:11.020Z,95418.21
2018-12-11T20:30:39.153Z,95420.97
2018-12-11T20:33:07.201Z,95415.08
2018-12-11T20:35:35.308Z,95422.31
2018-12-11T20:38:03.804Z,95420.80
2018-12-11T20:40:31.884Z,95425.65
2018-12-11T20:43:00.448Z,95424.84
2018-12-11T20:45:28.617Z,95423.82
2018-12-11T20:47:56.667Z,95422.92
2018-12-11T20:50:24.794Z,95425.25
2018-12-11T20:52:52.898Z,95425.64
2018-12-11T20:55:21.025Z,95421.63
2018-12-11T20:57:49.048Z,95416.11
2018-12-11T21:00:17.089Z,95417.73
2018-12-11T21:02:45.169Z,95423.99
2018-12-11T21:05:13.235Z,95419.98
2018-12-11T21:07:41.464Z,95418.06
2018-12-11T21:10:11.483Z,95417.28
2018-12-11T21:12:39.617Z,95415.28
2018-12-11T21:15:08.285Z,95417.80
2018-12-11T21:17:36.455Z,95414.22
2018-12-11T21:20:05.038Z,95416.69
2018-12-11T21:22:33.097Z,95416.86
2018-12-11T21:25:01.166Z,95416.72
2018-12-11T21:27:29.490Z,95423.06
2018-12-11T21:29:57.534Z,95424.97
2018-12-11T21:32:25.665Z,95430.94
2018-12-11T21:34:53.719Z,95433.70
2018-12-11T21:37:21.769Z,95423.58
2018-12-11T21:39:49.933Z,95431.53
2018-12-11T21:42:18.081Z,95436.34
2018-12-11T21:44:46.187Z,95434.13
2018-12-11T21:47:14.253Z,95432.34
2018-12-11T21:49:42.271Z,95432.22
2018-12-11T21:52:10.363Z,95439.42
2018-12-11T21:54:38.453Z,95437.14
2018-12-11T21:57:06.573Z,95438.58
2018-12-11T21:59:34.605Z,95430.09
2018-12-11T22:02:02.740Z,95433.23
2018-12-11T22:04:30.782Z,95432.60
2018-12-11T22:06:58.841Z,95437.30
2018-12-11T22:09:26.875Z,95435.18
2018-12-11T22:11:54.960Z,95432.80
2018-12-11T22:14:23.017Z,95430.58
2018-12-11T22:16:51.090Z,95436.95
2018-12-11T22:19:19.129Z,95437.73
2018-12-11T22:21:47.196Z,95452.05
2018-12-11T22:24:15.298Z,95445.19
2018-12-11T22:26:43.378Z,95453.25
2018-12-11T22:29:11.412Z,95455.64
2018-12-11T22:31:39.468Z,95448.75
2018-12-11T22:34:07.502Z,95442.12
2018-12-11T22:36:35.578Z,95445.95
2018-12-11T22:39:06.336Z,95447.12
2018-12-11T22:41:34.381Z,95444.00
2018-12-11T22:44:02.466Z,95451.93
2018-12-11T22:46:30.575Z,95444.53
2018-12-11T22:48:58.612Z,95442.39
2018-12-11T22:51:27.160Z,95441.49
2018-12-11T22:53:55.275Z,95448.48
2018-12-11T22:56:23.316Z,95451.66
2018-12-11T22:58:51.354Z,95451.34
2018-12-11T23:01:19.949Z,95455.42
2018-12-11T23:03:48.645Z,95461.88
2018-12-11T23:06:16.779Z,95448.17
2018-12-11T23:08:44.827Z,95457.13
2018-12-11T23:11:12.906Z,95455.36
2018-12-11T23:13:40.988Z,95453.70
2018-12-11T23:16:09.076Z,95457.25
2018-12-11T23:18:37.096Z,95452.78
2018-12-11T23:21:08.293Z,95452.20
2018-12-11T23:23:51.243Z,95450.00
2018-12-11T23:26:19.345Z,95450.34
2018-12-11T23:28:47.486Z,95451.14
2018-12-11T23:31:15.635Z,95450.23
2018-12-11T23:33:43.682Z,95457.42
2018-12-11T23:36:11.761Z,95456.08
2018-12-11T23:38:39.810Z,95459.37
2018-12-11T23:41:07.974Z,95464.70
2018-12-11T23:43:36.010Z,95460.78
2018-12-11T23:46:05.134Z,95465.61
2018-12-11T23:48:33.271Z,95461.40
2018-12-11T23:51:01.369Z,95463.37
2018-12-11T23:53:29.410Z,95464.14
2018-12-11T23:55:57.486Z,95468.41
2018-12-11T23:58:25.613Z,95477.78
